FDY weather

Findlay Airport
Findlay, Ohio, United States

Public forecast

Using degrees Fahrenheit for public forecast. Weather courtesy of forecast.io.

METAR (pilot weather report)

Retrieved 2019/03/26 16:53 UTC (1 hour ago):

KFDY 261653Z AUTO 01007G15KT 10SM CLR 06/M07 A3043 RMK AO2 SLP308 T00561067

TAF (pilot weather forecast)

Retrieved 2019/03/26 12:22 UTC (6 hours ago):

TAF KFDY 261120Z 2612/2712 03008KT P6SM SKC FM270000 07005KT P6SM SKC